Flight Track Log - Related Links

Times and Time Zones

All times are in EDT time to prevent confusion due to time zone crossing. See the SWA1031 flight status page for this flight to view local times or setup timezone preferences in your user account.

Time Position Orientation Groundspeed Altitude Reporting Facility
EDT Latitude Longitude Course Direction KTS MPH feet Rate Location/Type
Mon 04:51:34 PM 34.0942 -117.7611 299° West 231 266 6,500  Level Los Angeles Center
Mon 04:52:36 PM 34.1439 -117.8300 311° West 265 305 9,300 3,000 Climbing Los Angeles Center
Mon 04:53:38 PM 34.1978 -117.9058 311° West 293 337 12,700 2,758 Climbing Los Angeles Center
Mon 04:54:40 PM 34.2939 -117.9086 359° North 355 409 15,000 2,323 Climbing Los Angeles Center
Mon 04:55:00 PM 34.4001 -117.7999 59° Northeast  Level FlightAware Approximate
Mon 04:55:42 PM 34.3494 -117.7992 58° Northeast 381 438 17,500  Level Los Angeles Center
Mon 04:56:45 PM 34.4119 -117.6792 58° Northeast 397 457 19,600 1,728 Climbing Los Angeles Center
Mon 04:57:47 PM 34.4678 -117.5656 59° Northeast 401 461 21,100 1,161 Climbing Los Angeles Center
Mon 04:58:49 PM 34.5264 -117.4486 59° Northeast 409 471 22,000 1,113 Climbing Los Angeles Center
Mon 04:59:51 PM 34.5867 -117.3306 58° Northeast 413 475 23,400 1,113 Climbing Los Angeles Center
Mon 05:00:53 PM 34.6608 -117.2233 50° Northeast 420 483 24,300 774 Climbing Los Angeles Center
Mon 05:01:55 PM 34.7514 -117.0953 49° Northeast 421 484 25,000 1,258 Climbing Los Angeles Center
Mon 05:02:57 PM 34.8281 -116.9867 49° Northeast 427 491 26,900 1,790 Climbing Los Angeles Center
Mon 05:03:59 PM 34.9061 -116.8736 50° Northeast 434 499 28,700 1,742 Climbing Los Angeles Center
Mon 05:05:01 PM 34.9850 -116.7597 50° Northeast 439 505 30,500 1,790 Climbing Los Angeles Center
Mon 05:06:03 PM 35.0642 -116.6469 49° Northeast 440 506 32,400 1,824 Climbing Los Angeles Center
Mon 05:07:06 PM 35.1583 -116.5111 50° Northeast 438 504 34,300 1,776 Climbing Los Angeles Center
Mon 05:08:08 PM 35.2350 -116.4006 50° Northeast 433 498 36,100 1,306 Climbing Los Angeles Center
Mon 05:09:10 PM 35.3103 -116.2889 50° Northeast 427 491 37,000 435 Climbing Los Angeles Center
Mon 05:10:12 PM 35.3869 -116.1794 49° Northeast 425 489 37,000  Level Los Angeles Center
Mon 05:11:14 PM 35.4625 -116.0681 50° Northeast 425 489 37,000  Level Los Angeles Center
Mon 05:12:16 PM 35.5547 -115.9364 49° Northeast 425 489 37,000  Level Los Angeles Center
Mon 05:13:18 PM 35.6244 -115.8356 50° Northeast 425 489 37,000  Level Los Angeles Center
Mon 05:14:20 PM 35.7144 -115.7031 50° Northeast 424 488 37,000  Level Los Angeles Center
Mon 05:15:22 PM 35.7894 -115.5928 50° Northeast 422 486 37,000  Level Los Angeles Center
Mon 05:16:24 PM 35.8639 -115.4822 50° Northeast 421 484 37,000  Level Los Angeles Center
Mon 05:17:27 PM 35.9378 -115.3722 50° Northeast 420 483 37,000  Level Los Angeles Center
Mon 05:18:29 PM 36.0122 -115.2614 50° Northeast 422 486 37,000  Level Los Angeles Center
Mon 05:19:31 PM 36.0917 -115.1214 55° Northeast 420 483 37,000  Level Los Angeles Center
Mon 05:20:33 PM 36.1336 -114.9844 69° East 426 490 37,000  Level Los Angeles Center
Mon 05:21:35 PM 36.1764 -114.8472 69° East 427 491 37,000  Level Los Angeles Center
Mon 05:22:37 PM 36.2169 -114.7122 70° East 424 488 37,000  Level Los Angeles Center
Mon 05:23:39 PM 36.2586 -114.5750 69° East 427 491 37,000  Level Los Angeles Center
Mon 05:24:41 PM 36.3006 -114.4361 69° East 430 495 37,000  Level Los Angeles Center
Mon 05:25:43 PM 36.3506 -114.2686 70° East 432 497 37,000  Level Los Angeles Center
Mon 05:26:46 PM 36.3933 -114.1303 69° East 430 495 37,000  Level Los Angeles Center
Mon 05:27:48 PM 36.4350 -113.9903 70° East 431 496 37,000  Level Los Angeles Center
Mon 05:28:50 PM 36.4772 -113.8506 69° East 433 498 37,000  Level Los Angeles Center
Mon 05:29:52 PM 36.5175 -113.7119 70° East 429 494 37,000  Level Los Angeles Center
Mon 05:30:54 PM 36.5575 -113.5739 70° East 427 491 37,000  Level Los Angeles Center
Mon 05:31:56 PM 36.6058 -113.4083 70° East 426 490 37,000  Level Los Angeles Center
Mon 05:32:58 PM 36.6461 -113.2722 70° East 423 487 37,000  Level Los Angeles Center
Mon 05:34:00 PM 36.6858 -113.1369 70° East 419 482 37,000  Level Los Angeles Center
Mon 05:35:02 PM 36.7239 -113.0003 71° East 420 483 37,000  Level Los Angeles Center
Mon 05:36:04 PM 36.7639 -112.8636 70° East 421 484 37,000  Level Los Angeles Center
Mon 05:37:07 PM 36.8103 -112.7008 70° East 418 481 37,000  Level Los Angeles Center
Mon 05:38:09 PM 36.8494 -112.5633 70° East 421 484 37,000  Level Los Angeles Center
Mon 05:39:11 PM 36.8886 -112.4258 70° East 423 487 37,000  Level Los Angeles Center
Mon 05:40:13 PM 36.9281 -112.2858 71° East 427 491 37,000  Level Los Angeles Center
Mon 05:41:15 PM 36.9669 -112.1456 71° East 429 494 37,000  Level Los Angeles Center
Mon 05:41:51 PM 36.9892 -112.0611 72° East 430 495 37,000  Level Denver Center
Mon 05:42:53 PM 37.0369 -111.8922 70° East 431 496 37,000  Level Denver Center
Mon 05:43:54 PM 37.0744 -111.7550 71° East 423 487 37,000  Level Denver Center
Mon 05:44:56 PM 37.1119 -111.6175 71° East 420 483 37,000  Level Denver Center
Mon 05:45:58 PM 37.1503 -111.4800 71° East 419 482 37,000  Level Denver Center
Mon 05:47:00 PM 37.1883 -111.3397 71° East 426 490 37,000  Level Denver Center
Mon 05:48:02 PM 37.2256 -111.1992 72° East 426 490 37,000  Level Denver Center
Mon 05:49:04 PM 37.2622 -111.0611 72° East 419 482 37,000  Level Denver Center
Mon 05:50:06 PM 37.3075 -110.8931 71° East 424 488 37,000  Level Denver Center
Mon 05:51:08 PM 37.3367 -110.7806 72° East 426 490 37,000  Level Denver Center
Mon 05:52:10 PM 37.3803 -110.6147 72° East 419 482 37,000  Level Denver Center
Mon 05:53:12 PM 37.4175 -110.4756 71° East 420 483 37,000  Level Denver Center
Mon 05:54:14 PM 37.4536 -110.3344 72° East 424 488 37,000  Level Denver Center
Mon 05:55:16 PM 37.4983 -110.1661 71° East 423 487 37,000  Level Denver Center
Mon 05:56:18 PM 37.5325 -110.0314 72° East 422 486 37,000  Level Denver Center
Mon 05:57:19 PM 37.5611 -109.9189 72° East 423 487 37,000  Level Denver Center
Mon 05:58:22 PM 37.6075 -109.7347 72° East 428 493 37,000  Level Denver Center
Mon 05:59:23 PM 37.6419 -109.5989 72° East 427 491 37,000  Level Denver Center
Mon 06:00:37 PM 37.6822 -109.4397 72° East 425 489 37,000  Level Denver Center
Mon 06:01:40 PM 37.7281 -109.2556 72° East 430 495 37,000  Level Denver Center
Mon 06:02:42 PM 37.7619 -109.1192 73° East 426 490 37,000  Level Denver Center
Mon 06:03:43 PM 37.7961 -108.9811 73° East 428 493 37,000  Level Denver Center
Mon 06:04:45 PM 37.8356 -108.8208 73° East 428 493 37,000  Level Denver Center
Mon 06:05:47 PM 37.8714 -108.6844 72° East 427 491 37,000  Level Denver Center
Mon 06:06:49 PM 37.9114 -108.5225 73° East 429 494 37,000 629 Level Denver Center
Mon 06:07:51 PM 37.9456 -108.3869 72° East 424 488 38,300 968 Climbing Denver Center
Mon 06:08:53 PM 37.9844 -108.2294 73° East 421 484 39,000 339 Climbing Denver Center
Mon 06:09:55 PM 38.0186 -108.0900 73° East 429 494 39,000  Level Denver Center
Mon 06:10:57 PM 38.0581 -107.9283 73° East 431 496 39,000  Level Denver Center
Mon 06:11:59 PM 38.0900 -107.7978 73° East 426 490 39,000  Level Denver Center
Mon 06:13:00 PM 38.1169 -107.6850 73° East 423 487 39,000  Level Denver Center
Mon 06:14:02 PM 38.1619 -107.4989 73° East 430 495 39,000  Level Denver Center
Mon 06:15:04 PM 38.2000 -107.3372 73° East 430 495 39,000  Level Denver Center
Mon 06:16:06 PM 38.2333 -107.2003 73° East 426 490 39,000  Level Denver Center
Mon 06:17:08 PM 38.2706 -107.0419 73° East 430 495 39,000  Level Denver Center
Mon 06:18:09 PM 38.3039 -106.8986 73° East 423 487 39,000  Level Denver Center
Mon 06:19:11 PM 38.3361 -106.7608 73° East 429 494 39,000  Level Denver Center
Mon 06:20:13 PM 38.3650 -106.6375 73° East 429 494 39,000  Level Denver Center
Mon 06:21:15 PM 38.4047 -106.4628 74° East 430 495 39,000  Level Denver Center
Mon 06:22:17 PM 38.4389 -106.3158 73° East 433 498 39,000  Level Denver Center
Mon 06:23:19 PM 38.4747 -106.1564 74° East 434 499 39,000  Level Denver Center
Mon 06:24:21 PM 38.5119 -105.9919 74° East 433 498 39,000  Level Denver Center
Mon 06:25:23 PM 38.5442 -105.8500 74° East 433 498 39,000  Level Denver Center
Mon 06:26:36 PM 38.5792 -105.6856 75° East 434 499 39,000  Level Denver Center
Mon 06:27:39 PM 38.6183 -105.5100 74° East 437 503 39,000  Level Denver Center
Mon 06:28:40 PM 38.6519 -105.3589 74° East 439 505 39,000  Level Denver Center
Mon 06:29:42 PM 38.6850 -105.2086 74° East 437 503 39,000  Level Denver Center
Mon 06:30:44 PM 38.7222 -105.0344 75° East 433 498 39,000  Level Denver Center
Mon 06:31:46 PM 38.7542 -104.8844 75° East 434 499 39,000  Level Denver Center
Mon 06:32:48 PM 38.7867 -104.7356 74° East 433 498 39,000  Level Denver Center
Mon 06:33:49 PM 38.8178 -104.5875 75° East 430 495 39,000  Level Denver Center
Mon 06:34:51 PM 38.8489 -104.4383 75° East 431 496 39,000  Level Denver Center
Mon 06:35:53 PM 38.8803 -104.2894 75° East 429 494 39,000  Level Denver Center
Mon 06:36:55 PM 38.9108 -104.1394 75° East 432 497 39,000  Level Denver Center
Mon 06:37:56 PM 38.9467 -103.9658 75° East 430 495 39,000  Level Denver Center
Mon 06:38:58 PM 38.9781 -103.8156 75° East 433 498 39,000  Level Denver Center
Mon 06:40:00 PM 39.0078 -103.6644 76° East 434 499 39,000  Level Denver Center
Mon 06:41:02 PM 39.0397 -103.5103 75° East 440 506 39,000  Level Denver Center
Mon 06:42:03 PM 39.0686 -103.3592 76° East 435 501 39,000  Level Denver Center
Mon 06:43:05 PM 39.0992 -103.2064 76° East 438 504 39,000  Level Denver Center
Mon 06:44:07 PM 39.1317 -103.0544 75° East 437 503 39,000  Level Denver Center
Mon 06:45:09 PM 39.1597 -102.9028 77° East 432 497 39,000  Level Denver Center
Mon 06:46:10 PM 39.1897 -102.7483 76° East 440 506 39,000  Level Denver Center
Mon 06:47:12 PM 39.2181 -102.5889 77° East 440 506 39,000  Level Denver Center
Mon 06:48:14 PM 39.2519 -102.4181 76° East 441 507 39,000  Level Denver Center
Mon 06:49:15 PM 39.2794 -102.2711 76° East 439 505 39,000  Level Denver Center
Mon 06:50:17 PM 39.3122 -102.0981 76° East 444 511 39,000  Level Denver Center
Mon 06:51:19 PM 39.3403 -101.9531 76° East 443 510 39,000  Level Denver Center
Mon 06:52:21 PM 39.3714 -101.7781 77° East 447 514 39,000  Level Denver Center
Mon 06:53:23 PM 39.3994 -101.6289 76° East 445 512 39,000  Level Denver Center
Mon 06:54:36 PM 39.4286 -101.4556 78° East 444 511 39,000  Level Denver Center
Mon 06:55:38 PM 39.4531 -101.3078 78° East 442 509 39,000  Level Denver Center
Mon 06:56:52 PM 39.4872 -101.1089 77° East 445 512 39,000  Level Denver Center
Mon 06:57:54 PM 39.5211 -100.9058 78° East 454 522 39,000  Level Denver Center
Mon 06:58:56 PM 39.5467 -100.7569 77° East 448 516 39,000  Level Denver Center
Mon 06:59:58 PM 39.5750 -100.5778 78° East 453 521 39,000  Level Denver Center
Mon 07:01:00 PM 39.6006 -100.4269 78° East 452 520 39,000  Level Denver Center
Mon 07:02:02 PM 39.6250 -100.2733 78° East 455 524 39,000  Level Denver Center
Mon 07:03:16 PM 39.6528 -100.0958 78° East 452 520 39,000  Level Denver Center
Mon 07:04:18 PM 39.6839 -99.9019 78° East 452 520 39,000  Level Denver Center
Mon 07:05:20 PM 39.7083 -99.7417 79° East 454 522 39,000  Level Denver Center
Mon 07:06:22 PM 39.7333 -99.5825 78° East 452 520 39,000  Level Denver Center
Mon 07:07:24 PM 39.7583 -99.4219 79° East 455 524 39,000  Level Denver Center
Mon 07:08:25 PM 39.7869 -99.2289 79° East 455 524 39,000  Level Denver Center
Mon 07:09:27 PM 39.8114 -99.0672 79° East 455 524 39,000  Level Denver Center
Mon 07:10:37 PM 39.8397 -98.8736 79° East 457 526 39,000  Level Minneapolis Center
Mon 07:11:39 PM 39.8633 -98.7139 79° East 454 522 39,000  Level Minneapolis Center
Mon 07:12:33 PM 39.8819 -98.5831 79° East 457 526 39,000  Level Denver Center
Mon 07:13:35 PM 39.9067 -98.4233 79° East 455 524 39,000  Level Denver Center
Mon 07:14:44 PM 40.0003 -98.2825 49° Northeast 437 503 39,000  Level Minneapolis Center
Mon 07:15:45 PM 40.0922 -98.1811 40° Northeast 433 498 39,000  Level Minneapolis Center
Mon 07:16:47 PM 40.1847 -98.0817 39° Northeast 432 497 39,000  Level Minneapolis Center
Mon 07:17:49 PM 40.2953 -97.9608 40° Northeast 432 497 39,000  Level Minneapolis Center
Mon 07:18:51 PM 40.3875 -97.8572 41° Northeast 435 501 39,000  Level Minneapolis Center
Mon 07:19:53 PM 40.4786 -97.7594 39° Northeast 430 495 39,000  Level Minneapolis Center
Mon 07:20:54 PM 40.5664 -97.6617 40° Northeast 419 482 39,000  Level Minneapolis Center
Mon 07:21:56 PM 40.6547 -97.5639 40° Northeast 417 480 39,000  Level Minneapolis Center
Mon 07:22:58 PM 40.7431 -97.4664 40° Northeast 416 479 39,000  Level Minneapolis Center
Mon 07:24:00 PM 40.8467 -97.3539 39° Northeast 418 481 39,000  Level Minneapolis Center
Mon 07:25:01 PM 40.9367 -97.2553 40° Northeast 419 482 39,000  Level Minneapolis Center
Mon 07:26:03 PM 41.0286 -97.1572 39° Northeast 422 486 39,000  Level Minneapolis Center
Mon 07:27:05 PM 41.1125 -97.0472 45° Northeast 425 489 39,000  Level Minneapolis Center
Mon 07:28:06 PM 41.1922 -96.9261 49° Northeast 433 498 39,000  Level Minneapolis Center
Mon 07:29:08 PM 41.2292 -96.7797 71° East 440 506 39,000  Level Minneapolis Center
Mon 07:30:10 PM 41.2306 -96.5761 89° East 458 527 39,000  Level Minneapolis Center
Mon 07:31:12 PM 41.2347 -96.4064 88° East 460 529 39,000  Level Minneapolis Center
Mon 07:32:13 PM 41.2383 -96.2292 88° East 459 528 39,000  Level Minneapolis Center
Mon 07:33:15 PM 41.2397 -96.0594 89° East 460 529 39,000  Level Minneapolis Center
Mon 07:34:17 PM 41.2428 -95.8892 89° East 461 531 39,000  Level Minneapolis Center
Mon 07:35:18 PM 41.2453 -95.7192 89° East 461 531 39,000  Level Minneapolis Center
Mon 07:36:20 PM 41.2453 -95.5378 90° East 459 528 39,000  Level Minneapolis Center
Mon 07:37:22 PM 41.2475 -95.3692 89° East 458 527 39,000  Level Minneapolis Center
Mon 07:38:23 PM 41.2497 -95.2003 89° East 459 528 39,000  Level Minneapolis Center
Mon 07:39:25 PM 41.2511 -95.0317 89° East 458 527 39,000  Level Minneapolis Center
Mon 07:40:27 PM 41.2514 -94.8650 90° East 454 522 39,000  Level Minneapolis Center
Mon 07:41:28 PM 41.2522 -94.6944 90° East 459 528 39,000  Level Minneapolis Center
Mon 07:42:30 PM 41.2525 -94.4906 90° East 461 531 39,000  Level Minneapolis Center
Mon 07:43:32 PM 41.2514 -94.3200 90° East 461 531 39,000  Level Minneapolis Center
Mon 07:44:33 PM 41.2517 -94.1419 90° East 463 533 39,000  Level Minneapolis Center
Mon 07:45:35 PM 41.2528 -93.9719 89° East 464 534 39,000  Level Minneapolis Center
Mon 07:46:37 PM 41.2514 -93.8011 91° East 465 535 39,000  Level Minneapolis Center
Mon 07:47:38 PM 41.2511 -93.6311 90° East 464 534 39,000  Level Minneapolis Center
Mon 07:48:40 PM 41.2506 -93.4583 90° East 467 537 39,000  Level Minneapolis Center
Mon 07:49:42 PM 41.2494 -93.2883 90° East 466 536 39,000  Level Minneapolis Center
Mon 07:50:43 PM 41.2481 -93.1175 91° East 464 534 39,000 -537 Level Minneapolis Center
Mon 07:51:45 PM 41.2458 -92.9139 91° East 463 533 37,900 -968 Descending Minneapolis Center
Mon 07:52:47 PM 41.2444 -92.7447 91° East 461 531 37,000 -919 Descending Minneapolis Center
Mon 07:53:49 PM 41.2417 -92.5703 91° East 468 539 36,000 -978 Descending Minneapolis Center
Mon 07:55:02 PM 41.2389 -92.3492 91° East 478 550 34,800 -978 Descending Chicago Center
Mon 07:56:04 PM 41.2350 -92.1731 92° East 482 555 33,800 -976 Descending Chicago Center
Mon 07:57:05 PM 41.2314 -92.0056 92° East 476 548 32,800 -976 Descending Chicago Center
Mon 07:58:07 PM 41.2281 -91.8375 91° East 463 533 31,800 -1,016 Descending Chicago Center
Mon 07:59:09 PM 41.2247 -91.6550 91° East 450 518 30,700 -968 Descending Chicago Center
Mon 08:00:11 PM 41.2208 -91.4831 92° East 461 531 29,800 -919 Descending Chicago Center
Mon 08:01:13 PM 41.2167 -91.3133 92° East 462 532 28,800 -1,065 Descending Chicago Center
Mon 08:02:15 PM 41.2108 -91.1122 92° East 456 525 27,600 -1,065 Descending Chicago Center
Mon 08:03:17 PM 41.2067 -90.9475 92° East 449 517 26,600 -968 Descending Chicago Center
Mon 08:04:19 PM 41.2019 -90.7856 92° East 443 510 25,600 -968 Descending Chicago Center
Mon 08:05:21 PM 41.1972 -90.6247 92° East 437 503 24,600 -1,016 Descending Chicago Center
Mon 08:06:23 PM 41.1914 -90.4661 93° East 430 495 23,500 -1,268 Descending Chicago Center
Mon 08:07:24 PM 41.1867 -90.3097 92° East 424 488 22,000 -1,756 Descending Chicago Center
Mon 08:08:26 PM 41.1811 -90.1586 93° East 413 475 19,900 -2,081 Descending Chicago Center
Mon 08:09:28 PM 41.1767 -90.0086 92° East 407 468 17,700 -2,323 Descending Chicago Center
Mon 08:10:30 PM 41.1706 -89.8344 93° East 396 456 15,100 -1,694 Descending Chicago Center
Mon 08:11:32 PM 41.1750 -89.6958 88° East 375 432 14,200 -919 Descending Chicago Center
Mon 08:12:34 PM 41.2119 -89.5644 69° East 379 436 13,200 -968 Descending Chicago Center
Mon 08:13:36 PM 41.2472 -89.4333 70° East 374 430 12,200 -968 Descending Chicago Center
Mon 08:14:38 PM 41.2819 -89.3061 70° East 366 421 11,200 -976 Descending Chicago Center
Mon 08:15:39 PM 41.3197 -89.1628 71° East 359 413 10,200 -585 Descending Chicago Center
Mon 08:16:41 PM 41.3531 -89.0406 70° East 355 409 10,000 -97 Descending Chicago Center
Mon 08:17:43 PM 41.3867 -88.9167 70° East 356 410 10,000 -387 Level Chicago Center
Mon 08:18:45 PM 41.4178 -88.8011 70° East 336 387 9,200 -1,113 Descending Chicago Center
Mon 08:19:47 PM 41.4472 -88.6906 70° East 320 368 7,700 -1,306 Descending Chicago Center
Mon 08:20:49 PM 41.4769 -88.5806 70° East 316 364 6,500 -823 Descending Chicago Center
Mon 08:21:51 PM 41.5133 -88.4569 69° East 304 350 6,000 -242 Descending Chicago Center
Mon 08:22:53 PM 41.5467 -88.3558 66° East 299 344 6,000 -48 Level Chicago Center
Mon 08:23:55 PM 41.5539 -88.2478 85° East 292 336 5,900 -484 Descending Chicago Center
Mon 08:24:57 PM 41.5619 -88.1397 84° East 290 334 5,000 -435 Descending Chicago Center
Mon 08:25:59 PM 41.5714 -88.0339 83° East 287 330 5,000 -194 Level Chicago Center
Mon 08:27:01 PM 41.5800 -87.9281 84° East 285 328 4,600 -726 Descending Chicago Center
Mon 08:28:03 PM 41.6136 -87.8353 64° Northeast 288 331 3,500 -871 Descending Chicago Center
Mon 08:29:05 PM 41.6717 -87.7503 48° Northeast 267 307 2,800 -484 Descending Chicago Center
Mon 08:30:07 PM 41.7308 -87.7097 27° Northeast 250 288 2,500 -339 Descending Chicago Center
Mon 08:31:09 PM 41.7836 -87.6833 20° North 222 255 2,100 -484 Descending Chicago Center
Mon 08:32:11 PM 41.8183 -87.7072 333° Northwest 182 209 1,500 -532 Descending Chicago Center
Mon 08:33:13 PM 41.7922 -87.7483 230° Southwest 162 186 1,000 -484 Descending Chicago Center

Login

Don't have an account? Register now (free) for customized features, flight alerts, and more!